Time;durP1;ratioP1;P1;durP2;ratioP2;P2;SDS_P1;SDS_P2;PMS_P1;PMS_P2;Temp;Humidity;BMP_temperature;BMP_pressure;BME280_temperature;BME280_humidity;BME280_pressure;Samples;Min_cycle;Max_cycle;Signal;HPM_P1;HPM_P2
2022/07/08 00:00:35;;;;;;;9.95;2.22;;;14.60;99.90;;;;;;5031241;28;20081;-74
2022/07/08 00:03:01;;;;;;;9.85;2.05;;;14.60;99.90;;;;;;5030880;28;20053;-74
2022/07/08 00:05:27;;;;;;;10.85;2.30;;;14.60;99.90;;;;;;5031335;28;20049;-75
2022/07/08 00:07:53;;;;;;;11.18;2.10;;;14.60;99.90;;;;;;5044514;28;20564;-75
2022/07/08 00:10:19;;;;;;;12.23;2.33;;;14.60;99.90;;;;;;5028587;28;20128;-74
2022/07/08 00:12:45;;;;;;;11.27;2.13;;;14.60;99.90;;;;;;5030217;28;20053;-75
2022/07/08 00:15:11;;;;;;;9.10;2.20;;;14.50;99.90;;;;;;5045012;28;20080;-76
2022/07/08 00:17:37;;;;;;;10.93;2.47;;;14.60;99.90;;;;;;5042670;28;20049;-74
2022/07/08 00:20:04;;;;;;;9.95;1.92;;;14.50;99.90;;;;;;5031076;28;20481;-75
2022/07/08 00:22:30;;;;;;;11.32;2.10;;;14.50;99.90;;;;;;5050859;28;20057;-76
2022/07/08 00:24:55;;;;;;;10.90;1.98;;;14.60;99.90;;;;;;5039520;28;20046;-74
2022/07/08 00:27:21;;;;;;;11.02;2.40;;;14.50;99.90;;;;;;5013282;28;20045;-76
2022/07/08 00:29:47;;;;;;;11.63;2.10;;;14.50;99.90;;;;;;5025040;28;20435;-75
2022/07/08 00:32:13;;;;;;;11.77;2.15;;;14.50;99.90;;;;;;5050174;28;20084;-75
2022/07/08 00:34:38;;;;;;;9.93;2.00;;;14.50;99.90;;;;;;5053910;28;20041;-75
2022/07/08 00:37:05;;;;;;;7.90;2.08;;;14.50;99.90;;;;;;5018248;28;20112;-75
2022/07/08 00:39:30;;;;;;;8.18;1.63;;;14.40;99.90;;;;;;5054684;28;20045;-75
2022/07/08 00:41:56;;;;;;;7.93;1.88;;;14.40;99.90;;;;;;5055152;28;20055;-75
2022/07/08 00:44:22;;;;;;;10.60;2.25;;;14.40;99.90;;;;;;5034702;28;20049;-74
2022/07/08 00:46:48;;;;;;;11.88;2.15;;;14.40;99.90;;;;;;5045957;28;20404;-74
2022/07/08 00:49:13;;;;;;;10.13;1.80;;;14.40;99.90;;;;;;5036539;28;20053;-74
2022/07/08 00:51:40;;;;;;;10.45;2.40;;;14.40;99.90;;;;;;5047001;28;20048;-73
2022/07/08 00:54:06;;;;;;;9.00;2.22;;;14.40;99.90;;;;;;5053830;28;20048;-74
2022/07/08 00:56:32;;;;;;;11.27;2.30;;;14.40;99.90;;;;;;5044818;28;20365;-75
2022/07/08 00:58:58;;;;;;;11.93;2.30;;;14.40;99.90;;;;;;5042095;28;20076;-73
2022/07/08 01:01:23;;;;;;;11.18;2.22;;;14.40;99.90;;;;;;5054110;28;20045;-73
2022/07/08 01:03:49;;;;;;;11.15;2.28;;;14.40;99.90;;;;;;5040868;28;20056;-73
2022/07/08 01:06:15;;;;;;;9.20;2.00;;;14.30;99.90;;;;;;5042142;28;20120;-73
2022/07/08 01:08:42;;;;;;;11.73;2.40;;;14.30;99.90;;;;;;5036601;28;20052;-73
2022/07/08 01:11:09;;;;;;;11.35;2.38;;;14.30;99.90;;;;;;5054167;28;20041;-74
2022/07/08 01:13:35;;;;;;;10.88;2.10;;;14.30;99.90;;;;;;5050840;28;20053;-75
2022/07/08 01:16:01;;;;;;;10.82;2.15;;;14.20;99.90;;;;;;5017711;28;20049;-74
2022/07/08 01:18:30;;;;;;;11.20;2.13;;;14.20;99.90;;;;;;5033455;28;20104;-73
2022/07/08 01:20:57;;;;;;;9.98;2.10;;;14.10;99.90;;;;;;5033377;28;20108;-74
2022/07/08 01:23:23;;;;;;;9.23;2.05;;;14.10;99.90;;;;;;5033857;28;20144;-73
2022/07/08 01:25:49;;;;;;;10.55;2.10;;;14.10;99.90;;;;;;5034521;28;20480;-73
2022/07/08 01:28:15;;;;;;;10.02;2.03;;;14.00;99.90;;;;;;5044068;28;20124;-72
2022/07/08 01:30:42;;;;;;;9.23;2.00;;;14.00;99.90;;;;;;5035223;28;20045;-73
2022/07/08 01:33:08;;;;;;;9.52;2.15;;;13.90;99.90;;;;;;5054627;28;20053;-73
2022/07/08 01:35:34;;;;;;;8.82;2.03;;;13.90;99.90;;;;;;5053314;28;20493;-73
2022/07/08 01:38:00;;;;;;;8.32;2.15;;;13.90;99.90;;;;;;5033605;28;20128;-73
2022/07/08 01:40:25;;;;;;;10.50;2.30;;;13.90;99.90;;;;;;5045610;28;20055;-74
2022/07/08 01:42:51;;;;;;;8.93;2.13;;;13.90;99.90;;;;;;5052268;28;20291;-75
2022/07/08 01:45:17;;;;;;;10.15;2.10;;;13.80;99.90;;;;;;5043871;28;20052;-74
2022/07/08 01:47:42;;;;;;;11.25;2.15;;;13.80;99.90;;;;;;5039091;28;20492;-74
2022/07/08 01:50:08;;;;;;;8.20;1.95;;;13.80;99.90;;;;;;5033530;28;20124;-74
2022/07/08 01:52:34;;;;;;;10.82;2.15;;;13.80;99.90;;;;;;5048073;28;20476;-74
2022/07/08 01:55:00;;;;;;;7.28;1.80;;;13.70;99.90;;;;;;5034351;28;20038;-73
2022/07/08 01:57:25;;;;;;;11.48;2.17;;;13.60;99.90;;;;;;5033405;28;20041;-73
2022/07/08 01:59:51;;;;;;;10.48;2.30;;;13.60;99.90;;;;;;5034787;28;20044;-73
2022/07/08 02:02:19;;;;;;;10.77;2.17;;;13.50;99.90;;;;;;5033838;28;20472;-74
2022/07/08 02:04:45;;;;;;;11.85;2.25;;;13.50;99.90;;;;;;5032779;28;20056;-74
2022/07/08 02:07:11;;;;;;;9.30;2.05;;;13.40;99.90;;;;;;5032522;28;20053;-74
2022/07/08 02:09:38;;;;;;;10.38;2.15;;;13.40;99.90;;;;;;5033018;28;20056;-74
2022/07/08 02:12:19;;;;;;;11.13;2.42;;;13.30;99.90;;;;;;5033109;28;20041;-75
2022/07/08 02:14:45;;;;;;;9.77;1.95;;;13.30;99.90;;;;;;5047673;28;20075;-78
2022/07/08 02:17:11;;;;;;;8.82;2.05;;;13.30;99.90;;;;;;5033806;28;20048;-73
2022/07/08 02:19:37;;;;;;;12.52;2.40;;;13.20;99.90;;;;;;5044749;28;20057;-73
2022/07/08 02:22:04;;;;;;;8.02;2.00;;;13.10;99.90;;;;;;5035112;28;20095;-73
2022/07/08 02:24:30;;;;;;;8.52;1.90;;;13.10;99.90;;;;;;5041436;28;20095;-73
2022/07/08 02:26:55;;;;;;;9.95;2.20;;;13.10;99.90;;;;;;5050841;28;20118;-73
2022/07/08 02:29:21;;;;;;;11.02;2.33;;;13.10;99.90;;;;;;5032716;28;20551;-74
2022/07/08 02:31:47;;;;;;;11.32;2.22;;;13.10;99.90;;;;;;5028981;28;20504;-74
2022/07/08 02:34:13;;;;;;;11.02;2.30;;;13.10;99.90;;;;;;5033804;28;20095;-74
2022/07/08 02:36:38;;;;;;;9.50;2.00;;;13.00;99.90;;;;;;5033540;28;20042;-74
2022/07/08 02:39:04;;;;;;;8.57;2.10;;;13.00;99.90;;;;;;5029521;28;20049;-74
2022/07/08 02:41:30;;;;;;;10.60;2.28;;;12.90;99.90;;;;;;5032543;28;20124;-75
2022/07/08 02:43:56;;;;;;;9.05;1.88;;;12.90;99.90;;;;;;5024575;28;20137;-74
2022/07/08 02:46:22;;;;;;;9.77;2.00;;;12.90;99.90;;;;;;5045874;28;20053;-74
2022/07/08 02:48:48;;;;;;;11.68;2.30;;;12.90;99.90;;;;;;5051604;28;20041;-75
2022/07/08 02:51:13;;;;;;;8.00;2.10;;;12.90;99.90;;;;;;5025150;28;20301;-76
2022/07/08 02:53:39;;;;;;;8.43;2.10;;;12.80;99.90;;;;;;5021894;28;20049;-73
2022/07/08 02:56:05;;;;;;;10.68;2.10;;;12.80;99.90;;;;;;5032341;28;20041;-74
2022/07/08 02:58:31;;;;;;;9.48;2.40;;;12.80;99.90;;;;;;5037143;28;20106;-74
2022/07/08 03:00:56;;;;;;;7.65;2.25;;;12.70;99.90;;;;;;5038882;28;20084;-74
2022/07/08 03:03:22;;;;;;;10.43;2.30;;;12.70;99.90;;;;;;5031290;28;20507;-74
2022/07/08 03:05:48;;;;;;;7.75;2.25;;;12.70;99.90;;;;;;5048488;28;20056;-74
2022/07/08 03:08:14;;;;;;;8.40;2.25;;;12.60;99.90;;;;;;5031416;28;20050;-74
2022/07/08 03:10:39;;;;;;;11.38;2.70;;;12.60;99.90;;;;;;5042167;28;20049;-74
2022/07/08 03:13:05;;;;;;;10.80;2.33;;;12.60;99.90;;;;;;5049845;28;20075;-75
2022/07/08 03:15:31;;;;;;;13.00;2.50;;;12.50;99.90;;;;;;5051726;28;20095;-76
2022/07/08 03:17:56;;;;;;;9.48;2.45;;;12.50;99.90;;;;;;5050913;28;20539;-75
2022/07/08 03:20:22;;;;;;;10.45;2.35;;;12.50;99.90;;;;;;5051339;28;20110;-75
2022/07/08 03:22:48;;;;;;;9.40;2.45;;;12.50;99.90;;;;;;5052622;28;20060;-74
2022/07/08 03:25:14;;;;;;;9.32;2.30;;;12.50;99.90;;;;;;5031648;28;20049;-74
2022/07/08 03:27:39;;;;;;;10.82;2.53;;;12.50;99.90;;;;;;5039869;28;20128;-75
2022/07/08 03:30:05;;;;;;;9.73;2.28;;;12.50;99.90;;;;;;5050077;28;20092;-75
2022/07/08 03:32:31;;;;;;;10.23;2.33;;;12.50;99.90;;;;;;5031644;28;20084;-74
2022/07/08 03:34:58;;;;;;;11.13;2.50;;;12.50;99.90;;;;;;5046297;28;20076;-74
2022/07/08 03:37:24;;;;;;;9.95;2.28;;;12.50;99.90;;;;;;5050658;28;20102;-75
2022/07/08 03:39:50;;;;;;;10.70;2.38;;;12.50;99.90;;;;;;5051548;28;20049;-75
2022/07/08 03:42:17;;;;;;;11.00;2.80;;;12.50;99.90;;;;;;5051456;28;20049;-75
2022/07/08 03:44:43;;;;;;;10.13;2.53;;;12.50;99.90;;;;;;5034168;28;20099;-75
2022/07/08 03:47:09;;;;;;;11.38;2.50;;;12.60;99.90;;;;;;5005220;28;20038;-77
2022/07/08 03:49:35;;;;;;;9.00;2.40;;;12.50;99.90;;;;;;5051368;28;20053;-76
2022/07/08 03:52:01;;;;;;;10.40;2.50;;;12.60;99.90;;;;;;5038269;28;20045;-76
2022/07/08 03:54:27;;;;;;;10.65;2.55;;;12.60;99.90;;;;;;5030813;28;20400;-75
2022/07/08 03:56:53;;;;;;;11.32;2.70;;;12.60;99.90;;;;;;5031244;28;20049;-75
2022/07/08 03:59:19;;;;;;;8.73;2.58;;;12.50;99.90;;;;;;5027660;28;20045;-74
2022/07/08 04:01:44;;;;;;;11.95;2.40;;;12.60;99.90;;;;;;5051209;28;20048;-75
2022/07/08 04:04:10;;;;;;;11.30;2.53;;;12.60;99.90;;;;;;5051159;28;20053;-76
2022/07/08 04:06:36;;;;;;;9.65;2.67;;;12.60;99.90;;;;;;5051049;28;20053;-76
2022/07/08 04:09:03;;;;;;;11.90;2.90;;;12.60;99.90;;;;;;5028683;28;20045;-75
2022/07/08 04:11:29;;;;;;;10.48;2.50;;;12.50;99.90;;;;;;5049025;28;20051;-75
2022/07/08 04:13:56;;;;;;;10.40;2.70;;;12.50;99.90;;;;;;5004870;28;20128;-75
2022/07/08 04:16:22;;;;;;;9.57;2.70;;;12.50;99.90;;;;;;5028808;28;20091;-76
2022/07/08 04:18:48;;;;;;;11.85;3.05;;;12.50;99.90;;;;;;5054495;28;20049;-76
2022/07/08 04:21:14;;;;;;;11.98;2.58;;;12.50;99.90;;;;;;5055176;28;20060;-76
2022/07/08 04:23:40;;;;;;;9.52;2.60;;;12.60;99.90;;;;;;5038410;28;20037;-76
2022/07/08 04:26:06;;;;;;;13.63;3.22;;;12.60;99.90;;;;;;5044929;28;20037;-75
2022/07/08 04:28:32;;;;;;;11.75;2.90;;;12.60;99.90;;;;;;5035477;28;20051;-75
2022/07/08 04:30:58;;;;;;;11.07;2.58;;;12.70;99.90;;;;;;5034936;28;20049;-76
2022/07/08 04:33:24;;;;;;;10.68;2.42;;;12.70;99.90;;;;;;5034646;28;20049;-75
2022/07/08 04:35:49;;;;;;;10.10;2.60;;;12.70;99.90;;;;;;5039844;28;20476;-75
2022/07/08 04:38:15;;;;;;;9.38;2.50;;;12.70;99.90;;;;;;5054127;28;20179;-75
2022/07/08 04:40:41;;;;;;;9.52;2.55;;;12.70;99.90;;;;;;5054089;28;20155;-76
2022/07/08 04:43:06;;;;;;;10.35;2.35;;;12.70;99.90;;;;;;5015781;28;20037;-76
2022/07/08 04:45:32;;;;;;;13.25;3.00;;;12.80;99.90;;;;;;5053598;28;20559;-76
2022/07/08 04:47:58;;;;;;;8.82;2.50;;;12.80;99.90;;;;;;5055147;28;20041;-77
2022/07/08 04:50:24;;;;;;;10.90;2.42;;;12.80;99.90;;;;;;5026201;28;20392;-76
2022/07/08 04:52:49;;;;;;;9.57;2.50;;;12.90;99.90;;;;;;5034975;28;20099;-76
2022/07/08 04:55:27;;;;;;;11.50;2.80;;;12.90;99.90;;;;;;5034382;28;20059;-77
2022/07/08 04:57:58;;;;;;;9.57;2.65;;;13.00;99.90;;;;;;5033861;28;20045;-76
2022/07/08 05:00:24;;;;;;;12.75;2.72;;;13.20;99.90;;;;;;5034162;28;20063;-76
2022/07/08 05:02:50;;;;;;;12.73;2.75;;;13.40;99.90;;;;;;5049934;28;20388;-75
2022/07/08 05:05:20;;;;;;;12.68;2.50;;;13.80;99.90;;;;;;5037071;28;20045;-77
2022/07/08 05:07:47;;;;;;;10.70;2.30;;;14.50;99.90;;;;;;5029261;28;20048;-76
2022/07/08 05:10:15;;;;;;;10.00;2.10;;;15.40;99.90;;;;;;5053406;28;20107;-77
2022/07/08 05:12:40;;;;;;;9.95;2.22;;;15.80;99.90;;;;;;5015318;28;20036;-75
2022/07/08 05:15:06;;;;;;;8.75;2.28;;;15.80;99.90;;;;;;5021628;28;20072;-72
2022/07/08 05:17:32;;;;;;;10.00;2.10;;;15.90;99.90;;;;;;5040386;28;20431;-76
2022/07/08 05:19:58;;;;;;;9.15;2.10;;;16.40;99.90;;;;;;5038896;28;20049;-75
2022/07/08 05:22:23;;;;;;;9.02;2.00;;;17.20;99.90;;;;;;5016675;28;20057;-76
2022/07/08 05:24:49;;;;;;;10.90;2.30;;;17.30;99.90;;;;;;5026655;28;20049;-76
2022/07/08 05:27:15;;;;;;;9.45;2.00;;;17.50;99.90;;;;;;5019477;28;20484;-76
2022/07/08 05:29:40;;;;;;;12.38;2.58;;;17.90;99.90;;;;;;5044948;28;20049;-74
2022/07/08 05:32:06;;;;;;;10.73;1.98;;;18.90;99.90;;;;;;5045090;28;20057;-77
2022/07/08 05:34:32;;;;;;;11.65;2.25;;;18.80;99.90;;;;;;5045657;28;20408;-76
2022/07/08 05:36:58;;;;;;;9.77;2.63;;;18.80;99.90;;;;;;5050239;28;20079;-77
2022/07/08 05:39:24;;;;;;;8.18;1.98;;;19.60;99.90;;;;;;5036744;28;20044;-75
2022/07/08 05:41:51;;;;;;;9.85;2.22;;;19.80;99.90;;;;;;5040195;28;20080;-75
2022/07/08 05:44:17;;;;;;;11.95;2.38;;;20.30;99.90;;;;;;5051227;28;20102;-76
2022/07/08 05:46:43;;;;;;;7.82;1.77;;;20.30;99.90;;;;;;5053024;28;20040;-75
2022/07/08 05:49:09;;;;;;;9.95;1.88;;;20.90;99.90;;;;;;5026137;28;20048;-76
2022/07/08 05:51:35;;;;;;;10.07;2.10;;;20.90;99.90;;;;;;5043529;28;20049;-75
2022/07/08 05:54:01;;;;;;;10.75;2.28;;;21.00;99.90;;;;;;5049325;28;20040;-75
2022/07/08 05:56:26;;;;;;;12.25;2.10;;;20.60;99.90;;;;;;5033896;28;20085;-77
2022/07/08 05:58:52;;;;;;;10.20;2.15;;;20.00;99.90;;;;;;5035432;28;20077;-75
2022/07/08 06:01:18;;;;;;;11.48;2.40;;;19.60;99.90;;;;;;5030832;28;20088;-76
2022/07/08 06:03:44;;;;;;;10.32;2.10;;;18.90;99.90;;;;;;5039079;28;20044;-76
2022/07/08 06:06:09;;;;;;;10.05;2.10;;;18.60;99.90;;;;;;5039668;28;20048;-75
2022/07/08 06:08:35;;;;;;;12.15;2.17;;;18.60;99.90;;;;;;5043223;28;20138;-74
2022/07/08 06:11:01;;;;;;;9.10;2.10;;;18.70;99.90;;;;;;5039453;28;20040;-75
2022/07/08 06:13:27;;;;;;;10.35;2.25;;;18.90;99.90;;;;;;5032833;28;20495;-75
2022/07/08 06:15:53;;;;;;;10.35;1.98;;;19.30;99.90;;;;;;5044907;28;20431;-77
2022/07/08 06:18:19;;;;;;;11.80;2.10;;;19.70;99.90;;;;;;5050146;28;20060;-76
2022/07/08 06:20:45;;;;;;;11.35;2.13;;;19.80;99.90;;;;;;5032576;28;20132;-76
2022/07/08 06:23:11;;;;;;;9.90;1.80;;;19.80;99.90;;;;;;5048703;28;20552;-76
2022/07/08 06:25:38;;;;;;;9.35;2.13;;;20.30;99.90;;;;;;5052174;28;20045;-77
2022/07/08 06:28:04;;;;;;;11.25;2.03;;;20.50;99.90;;;;;;5023509;28;20128;-76
2022/07/08 06:30:30;;;;;;;10.23;2.38;;;20.70;99.90;;;;;;5019342;28;20046;-76
2022/07/08 06:32:55;;;;;;;9.63;2.15;;;20.30;99.90;;;;;;5015810;28;20059;-75
2022/07/08 06:35:21;;;;;;;10.73;2.20;;;20.20;99.90;;;;;;5049538;28;20037;-76
2022/07/08 06:37:47;;;;;;;12.13;2.30;;;19.90;99.90;;;;;;5051998;28;20143;-75
2022/07/08 06:40:13;;;;;;;10.63;2.25;;;19.60;99.90;;;;;;5038308;28;20567;-73
2022/07/08 06:42:39;;;;;;;10.70;2.00;;;19.50;99.90;;;;;;5030308;28;20503;-76
2022/07/08 06:45:05;;;;;;;8.18;1.90;;;19.30;99.90;;;;;;5042735;28;20037;-74
2022/07/08 06:47:31;;;;;;;12.40;2.10;;;19.10;99.90;;;;;;5046006;28;20116;-77
2022/07/08 06:49:56;;;;;;;9.82;2.00;;;19.00;99.90;;;;;;5041977;28;20440;-76
2022/07/08 06:52:22;;;;;;;11.75;2.30;;;18.90;99.90;;;;;;5033395;28;20049;-75
2022/07/08 06:54:48;;;;;;;12.25;2.55;;;18.80;99.90;;;;;;5045284;28;20045;-74
2022/07/08 06:57:15;;;;;;;12.55;2.40;;;18.70;99.90;;;;;;5031220;28;20535;-77
2022/07/08 06:59:41;;;;;;;11.82;2.65;;;18.60;99.90;;;;;;5033746;28;20380;-75
2022/07/08 07:02:08;;;;;;;10.65;2.30;;;18.40;99.90;;;;;;5048987;28;20128;-74
2022/07/08 07:04:34;;;;;;;10.00;2.20;;;18.20;99.90;;;;;;5037519;28;20053;-77
2022/07/08 07:07:00;;;;;;;11.43;2.45;;;18.20;99.90;;;;;;5051294;28;20492;-76
2022/07/08 07:09:25;;;;;;;9.57;2.17;;;18.20;99.90;;;;;;5032070;28;20085;-74
2022/07/08 07:11:52;;;;;;;11.68;2.30;;;18.20;99.90;;;;;;5046701;28;20473;-73
2022/07/08 07:14:18;;;;;;;9.05;2.00;;;18.20;99.90;;;;;;5021098;28;20055;-71
2022/07/08 07:16:44;;;;;;;12.50;2.47;;;18.20;99.90;;;;;;5048536;28;20046;-75
2022/07/08 07:19:11;;;;;;;13.27;2.58;;;18.10;99.90;;;;;;5031649;28;20511;-75
2022/07/08 07:21:37;;;;;;;12.63;2.53;;;18.20;99.90;;;;;;5015072;28;20073;-75
2022/07/08 07:24:03;;;;;;;9.15;2.38;;;18.30;99.90;;;;;;5030582;28;20084;-75
2022/07/08 07:26:28;;;;;;;10.05;2.20;;;18.40;99.90;;;;;;5039178;28;20041;-75
2022/07/08 07:28:55;;;;;;;14.40;2.60;;;18.40;99.90;;;;;;5046818;28;20492;-75
2022/07/08 07:31:21;;;;;;;11.20;2.38;;;18.40;99.90;;;;;;5030954;28;20053;-75
2022/07/08 07:33:46;;;;;;;10.77;2.30;;;18.40;99.90;;;;;;5045046;28;20450;-75
2022/07/08 07:36:12;;;;;;;12.10;2.20;;;18.40;99.90;;;;;;5013893;28;20057;-77
2022/07/08 07:38:38;;;;;;;12.07;2.35;;;18.30;99.90;;;;;;5027875;28;20099;-75
2022/07/08 07:41:04;;;;;;;10.48;2.30;;;18.20;99.90;;;;;;5030323;28;20521;-77
2022/07/08 07:43:29;;;;;;;10.52;2.30;;;18.10;99.90;;;;;;5034497;28;20420;-75
2022/07/08 07:45:55;;;;;;;9.65;2.30;;;18.00;99.90;;;;;;5046804;28;20076;-74
2022/07/08 07:48:21;;;;;;;11.55;2.40;;;18.00;99.90;;;;;;5050818;28;20512;-73
2022/07/08 07:50:47;;;;;;;9.60;2.15;;;18.10;99.90;;;;;;5052757;28;20044;-77
2022/07/08 07:53:12;;;;;;;11.18;2.30;;;18.20;99.90;;;;;;5034989;28;20139;-74
2022/07/08 07:55:38;;;;;;;11.77;2.20;;;18.30;99.90;;;;;;5023518;28;20041;-80
2022/07/08 07:58:04;;;;;;;11.63;2.17;;;18.30;99.90;;;;;;5006209;28;20088;-74
2022/07/08 08:00:30;;;;;;;10.18;2.20;;;18.30;99.90;;;;;;5036425;28;20049;-77
2022/07/08 08:02:56;;;;;;;11.80;2.28;;;18.40;99.90;;;;;;5034548;28;20077;-76
2022/07/08 08:05:21;;;;;;;12.02;2.22;;;18.50;99.90;;;;;;5035772;28;20288;-73
2022/07/08 08:07:47;;;;;;;12.68;2.63;;;18.50;99.90;;;;;;5040166;28;20061;-78
2022/07/08 08:10:14;;;;;;;9.65;2.40;;;18.50;99.90;;;;;;5040735;28;20048;-76
2022/07/08 08:12:41;;;;;;;10.60;2.53;;;18.40;99.90;;;;;;5038921;28;20095;-74
2022/07/08 08:15:07;;;;;;;11.82;2.35;;;18.30;99.90;;;;;;5049359;28;20085;-75
2022/07/08 08:17:41;;;;;;;10.88;2.10;;;18.40;99.90;;;;;;5038980;28;20051;-74
2022/07/08 08:20:09;;;;;;;11.00;2.30;;;18.50;99.90;;;;;;5038745;28;20076;-74
2022/07/08 08:22:35;;;;;;;10.45;2.30;;;18.50;99.90;;;;;;5037592;28;20500;-75
2022/07/08 08:25:02;;;;;;;12.32;2.22;;;18.50;99.90;;;;;;5039223;28;20083;-76
2022/07/08 08:27:28;;;;;;;10.13;2.38;;;18.60;99.90;;;;;;5037065;28;20059;-79
2022/07/08 08:29:54;;;;;;;11.55;2.30;;;18.60;99.90;;;;;;5027004;28;20128;-75
2022/07/08 08:32:20;;;;;;;11.18;2.45;;;18.60;99.90;;;;;;5034352;28;20128;-78
2022/07/08 08:34:46;;;;;;;9.93;2.03;;;18.60;99.90;;;;;;5050387;28;20049;-74
2022/07/08 08:37:12;;;;;;;10.70;2.33;;;18.60;99.90;;;;;;5033233;28;20049;-75
2022/07/08 08:39:39;;;;;;;9.85;2.25;;;18.60;99.90;;;;;;5018500;28;20036;-75
2022/07/08 08:42:06;;;;;;;10.32;2.25;;;18.60;99.90;;;;;;5049128;28;20058;-78
2022/07/08 08:44:32;;;;;;;8.55;2.20;;;18.70;99.90;;;;;;5023783;28;20085;-75
2022/07/08 08:46:58;;;;;;;10.10;2.30;;;18.60;99.90;;;;;;5033862;28;20077;-75
2022/07/08 08:49:25;;;;;;;11.10;2.15;;;18.70;99.90;;;;;;5034961;28;20041;-73
2022/07/08 08:51:51;;;;;;;11.93;2.20;;;18.70;99.90;;;;;;5034830;28;20107;-79
2022/07/08 08:54:22;;;;;;;11.43;2.35;;;18.80;99.90;;;;;;5052813;28;20040;-75
2022/07/08 08:56:48;;;;;;;8.48;2.05;;;18.90;99.90;;;;;;5019103;28;20053;-76
2022/07/08 08:59:18;;;;;;;10.55;2.00;;;18.90;99.90;;;;;;5031997;28;20523;-76
2022/07/08 09:01:44;;;;;;;7.85;2.13;;;18.90;99.90;;;;;;5019257;28;20038;-77
2022/07/08 09:04:11;;;;;;;12.60;2.30;;;19.00;99.90;;;;;;5049023;28;20049;-73
2022/07/08 09:06:40;;;;;;;9.50;2.28;;;19.00;99.90;;;;;;5035277;28;20048;-75
2022/07/08 09:09:06;;;;;;;10.02;2.22;;;19.00;99.90;;;;;;5017233;28;20119;-75
2022/07/08 09:11:35;;;;;;;10.40;2.40;;;19.00;99.90;;;;;;5032516;28;20440;-74
2022/07/08 09:14:20;;;;;;;9.65;2.15;;;19.00;99.90;;;;;;5054208;28;20079;-75
2022/07/08 09:17:12;;;;;;;10.20;2.20;;;19.10;99.90;;;;;;5033041;28;20071;-73
2022/07/08 09:19:41;;;;;;;8.07;2.17;;;19.40;99.90;;;;;;5037648;28;20246;-73
2022/07/08 09:22:08;;;;;;;10.60;2.28;;;19.60;99.90;;;;;;5033898;28;20487;-75
2022/07/08 09:24:35;;;;;;;10.25;2.50;;;19.70;99.90;;;;;;5032484;28;20501;-77
2022/07/08 09:27:08;;;;;;;8.77;2.50;;;19.80;99.90;;;;;;5033291;28;20053;-74
2022/07/08 09:29:35;;;;;;;10.02;2.50;;;19.80;99.90;;;;;;5032033;28;20092;-77
2022/07/08 09:32:12;;;;;;;9.50;2.20;;;19.90;99.90;;;;;;5032251;28;20046;-74
2022/07/08 09:34:37;;;;;;;9.63;2.30;;;19.90;99.90;;;;;;5032101;28;20050;-75
2022/07/08 09:37:15;;;;;;;9.40;2.30;;;20.00;99.90;;;;;;5033615;28;20095;-77
2022/07/08 09:39:42;;;;;;;11.55;2.30;;;19.90;99.90;;;;;;5033172;28;20050;-76
2022/07/08 09:42:09;;;;;;;9.85;2.50;;;19.90;99.90;;;;;;5030971;28;20052;-77
2022/07/08 09:44:36;;;;;;;9.70;2.60;;;19.80;99.90;;;;;;5031293;28;20072;-76
2022/07/08 09:47:12;;;;;;;9.13;2.47;;;19.80;99.90;;;;;;5033003;28;20045;-75
2022/07/08 09:49:48;;;;;;;8.85;2.17;;;19.80;99.90;;;;;;5044338;28;20077;-74
2022/07/08 09:52:22;;;;;;;8.85;2.38;;;19.80;99.90;;;;;;5031807;28;20045;-76
2022/07/08 09:55:02;;;;;;;10.82;2.65;;;19.80;99.90;;;;;;5036551;28;20050;-74
2022/07/08 09:57:32;;;;;;;11.65;2.60;;;19.80;99.90;;;;;;5024454;28;20115;-75
2022/07/08 09:59:58;;;;;;;8.75;2.30;;;19.80;99.90;;;;;;5028106;28;20052;-77
2022/07/08 10:02:25;;;;;;;8.50;2.60;;;19.80;99.90;;;;;;5036077;28;20053;-76
2022/07/08 10:04:51;;;;;;;11.35;2.53;;;19.70;99.90;;;;;;5043313;28;20403;-77
2022/07/08 10:07:17;;;;;;;12.15;2.97;;;19.80;99.90;;;;;;5031101;28;20057;-75
2022/07/08 10:09:43;;;;;;;12.13;2.90;;;19.80;99.90;;;;;;5035426;28;20102;-77
2022/07/08 10:12:13;;;;;;;10.32;2.53;;;19.80;99.90;;;;;;5041972;28;20072;-74
2022/07/08 10:14:43;;;;;;;11.45;2.58;;;19.80;99.90;;;;;;5054426;28;20498;-77
2022/07/08 10:17:16;;;;;;;10.48;2.50;;;19.80;99.90;;;;;;5034695;28;20049;-77
2022/07/08 10:19:43;;;;;;;8.82;2.50;;;19.90;99.90;;;;;;5037300;28;20145;-75
2022/07/08 10:22:10;;;;;;;8.55;2.53;;;19.90;99.90;;;;;;5038183;28;20053;-75
2022/07/08 10:24:39;;;;;;;9.55;2.53;;;19.90;99.90;;;;;;5039605;28;20504;-77
2022/07/08 10:27:05;;;;;;;8.30;2.58;;;19.80;99.90;;;;;;5034801;28;20049;-77
2022/07/08 10:29:34;;;;;;;9.18;2.30;;;19.70;99.90;;;;;;5019710;28;20033;-76
2022/07/08 10:32:00;;;;;;;7.97;2.40;;;19.70;99.90;;;;;;5036564;28;20095;-75
2022/07/08 10:34:31;;;;;;;9.02;2.67;;;19.80;99.90;;;;;;5047625;28;20057;-75
2022/07/08 10:36:58;;;;;;;10.43;2.60;;;19.70;99.90;;;;;;5028289;28;20095;-75
2022/07/08 10:39:25;;;;;;;9.32;2.45;;;19.70;99.90;;;;;;5044678;28;20061;-76
2022/07/08 10:42:05;;;;;;;12.25;2.90;;;19.70;99.90;;;;;;5017754;28;20439;-76
2022/07/08 10:44:46;;;;;;;9.80;2.50;;;19.70;99.90;;;;;;5044377;28;20091;-74
2022/07/08 10:47:14;;;;;;;10.63;2.58;;;19.80;99.90;;;;;;5035633;28;20406;-75
2022/07/08 10:49:44;;;;;;;8.80;2.40;;;19.90;99.90;;;;;;5039153;28;20051;-76
2022/07/08 10:52:11;;;;;;;11.07;2.85;;;19.90;99.90;;;;;;5040574;28;20064;-76
2022/07/08 10:54:37;;;;;;;11.80;2.97;;;20.10;99.90;;;;;;5023651;28;20060;-74
2022/07/08 10:57:15;;;;;;;10.02;2.60;;;20.10;99.90;;;;;;5032109;28;20041;-76
2022/07/08 10:59:41;;;;;;;9.95;2.50;;;20.40;99.90;;;;;;5047601;28;20052;-74
2022/07/08 11:02:16;;;;;;;9.70;2.50;;;20.70;99.90;;;;;;5036596;28;20049;-78
2022/07/08 11:04:51;;;;;;;8.32;2.72;;;21.00;99.90;;;;;;5035850;28;20072;-72
2022/07/08 11:07:17;;;;;;;10.65;3.00;;;21.20;99.90;;;;;;5035655;28;20046;-79
2022/07/08 11:10:07;;;;;;;12.07;2.80;;;21.30;99.90;;;;;;5049782;28;20041;-73
2022/07/08 11:12:38;;;;;;;9.05;2.88;;;21.50;99.90;;;;;;5034155;28;20053;-74
2022/07/08 11:15:18;;;;;;;12.37;2.90;;;21.60;99.90;;;;;;5021257;28;20057;-75
2022/07/08 11:17:49;;;;;;;10.55;2.75;;;21.50;99.90;;;;;;5028678;28;20077;-77
2022/07/08 11:20:18;;;;;;;;;;;21.40;99.90;;;;;;5030098;28;20056;-77
2022/07/08 11:22:45;;;;;;;10.93;2.90;;;21.40;99.90;;;;;;5031630;28;20015;-74
2022/07/08 11:25:15;;;;;;;8.80;2.55;;;21.50;99.90;;;;;;5014403;28;20061;-74
2022/07/08 11:27:42;;;;;;;8.85;2.60;;;21.70;99.90;;;;;;5034707;28;20104;-77
2022/07/08 11:30:13;;;;;;;9.77;2.67;;;21.90;99.90;;;;;;5033754;28;20080;-75
2022/07/08 11:32:40;;;;;;;9.35;2.40;;;21.80;99.90;;;;;;5030863;28;20041;-76
2022/07/08 11:35:06;;;;;;;10.32;2.83;;;21.90;99.90;;;;;;5034539;28;20079;-75
2022/07/08 11:37:32;;;;;;;10.57;2.50;;;22.10;99.90;;;;;;5032877;28;20049;-75
2022/07/08 11:39:59;;;;;;;7.88;2.47;;;22.20;99.90;;;;;;5023312;28;20042;-74
2022/07/08 11:42:25;;;;;;;9.85;2.50;;;22.30;99.90;;;;;;5030939;28;20072;-75
2022/07/08 11:44:52;;;;;;;10.27;2.40;;;22.30;99.90;;;;;;5032632;28;20116;-75
2022/07/08 11:47:22;;;;;;;11.38;2.80;;;22.60;99.90;;;;;;5032224;28;20109;-73
2022/07/08 11:49:49;;;;;;;8.48;2.50;;;23.10;99.90;;;;;;5028773;28;20080;-74
2022/07/08 11:52:18;;;;;;;7.22;2.35;;;23.20;99.90;;;;;;5021922;28;20053;-77
2022/07/08 11:54:46;;;;;;;7.50;2.30;;;23.40;99.90;;;;;;5033297;28;20096;-76
2022/07/08 11:57:13;;;;;;;7.47;2.20;;;23.40;99.90;;;;;;5045115;28;20303;-79
2022/07/08 11:59:39;;;;;;;10.23;2.30;;;23.30;99.90;;;;;;5049968;28;20063;-75
2022/07/08 12:02:05;;;;;;;8.90;2.00;;;23.20;99.90;;;;;;5046284;28;20045;-83
2022/07/08 12:04:31;;;;;;;10.82;2.42;;;23.30;99.90;;;;;;5045478;28;20404;-75
2022/07/08 12:07:01;;;;;;;9.63;2.60;;;23.40;99.90;;;;;;5028639;28;20100;-77
2022/07/08 12:09:31;;;;;;;6.03;2.20;;;23.60;99.90;;;;;;5042575;28;20057;-75
2022/07/08 12:11:58;;;;;;;10.52;2.38;;;23.70;99.90;;;;;;5033674;28;20037;-77
2022/07/08 12:14:25;;;;;;;8.57;2.33;;;23.60;99.10;;;;;;5028745;28;20041;-73
2022/07/08 12:16:51;;;;;;;7.50;2.30;;;23.60;99.40;;;;;;5048199;28;20124;-76
2022/07/08 12:19:39;;;;;;;9.48;2.53;;;23.60;99.90;;;;;;5031336;28;20125;-75
2022/07/08 12:22:07;;;;;;;7.63;2.20;;;23.60;99.90;;;;;;5030791;28;20060;-77
2022/07/08 12:24:38;;;;;;;8.23;2.00;;;23.70;99.90;;;;;;5029300;28;20116;-77
2022/07/08 12:27:30;;;;;;;8.13;2.20;;;23.80;99.50;;;;;;5031416;28;20037;-78
2022/07/08 12:30:01;;;;;;;;;;;23.60;98.30;;;;;;5046809;28;20586;-75
2022/07/08 12:32:45;;;;;;;9.13;2.40;;;23.70;99.70;;;;;;5032762;28;19947;-77
2022/07/08 12:35:12;;;;;;;7.63;2.13;;;23.70;97.90;;;;;;5032719;28;20048;-83
2022/07/08 12:37:38;;;;;;;10.13;2.40;;;23.80;98.50;;;;;;5023827;28;20124;-78
2022/07/08 12:40:20;;;;;;;8.32;2.53;;;23.80;98.60;;;;;;5033528;28;20085;-73